Smith Valley, Nevada Weather observations

Data are for 10 minute period ending at time listed.
 Day   Time   Solar   Ave.   Ave.  Ave.  Vector  Max.   Baro.   Total    
  of    of     Rad.   Air    Rel.  Wind   Wind   Wind  Press.  Precip.   
Year   Day            Temp.  Hum.  Speed  Dir.   Gust                    
2015   (PST)  Kw/m2    F      %     mph   deg.    mph    mb.     in.     
-------------------------------------------------------------------------
 211    8:50   0.68   78.9    19    1.6    67     4.3   861.2    0.00 
 211    9:00   0.71   79.4    20    2.1   155     3.9   861.2    0.00 
 211    9:10   0.74   80.5    18    1.5   126     4.7   861.1    0.00 
 211    9:20   0.76   81.4    16    1.8    87     3.6   861.1    0.00 
 211    9:30   0.79   83.3    15    2.3    30     5.0   861.1    0.00 
 211    9:40   0.82   85.0    12    2.5    42     7.7   861.1    0.00 
 211    9:50   100.00  99999.0   99999  99999.0   99999   99999.0   99999.0   99999.00 
 211   10:00   100.00  99999.0   99999  99999.0   99999   99999.0   99999.0   99999.00 
 211   10:10   100.00  99999.0   99999  99999.0   99999   99999.0   99999.0   99999.00 
 211   10:20   100.00  99999.0   99999  99999.0   99999   99999.0   99999.0   99999.00 
 211   10:30   100.00  99999.0   99999  99999.0   99999   99999.0   99999.0   99999.00 
 211   10:40   100.00  99999.0   99999  99999.0   99999   99999.0   99999.0   99999.00 
 211   10:50   100.00  99999.0   99999  99999.0   99999   99999.0   99999.0   99999.00 
 211   11:00   100.00  99999.0   99999  99999.0   99999   99999.0   99999.0   99999.00 
 211   11:10   100.00  99999.0   99999  99999.0   99999   99999.0   99999.0   99999.00 
 211   11:20   100.00  99999.0   99999  99999.0   99999   99999.0   99999.0   99999.00 
 211   11:30   100.00  99999.0   99999  99999.0   99999   99999.0   99999.0   99999.00 
 211   11:40   100.00  99999.0   99999  99999.0   99999   99999.0   99999.0   99999.00 
 211   11:50   100.00  99999.0   99999  99999.0   99999   99999.0   99999.0   99999.00 
 211   12:00   100.00  99999.0   99999  99999.0   99999   99999.0   99999.0   99999.00 
 211   12:10   100.00  99999.0   99999  99999.0   99999   99999.0   99999.0   99999.00 
 211   12:20   100.00  99999.0   99999  99999.0   99999   99999.0   99999.0   99999.00 
 211   12:30   100.00  99999.0   99999  99999.0   99999   99999.0   99999.0   99999.00 
 211   12:40   100.00  99999.0   99999  99999.0   99999   99999.0   99999.0   99999.00 
 211   12:50   100.00  99999.0   99999  99999.0   99999   99999.0   99999.0   99999.00 
 211   13:00   100.00  99999.0   99999  99999.0   99999   99999.0   99999.0   99999.00 
 211   13:10   100.00  99999.0   99999  99999.0   99999   99999.0   99999.0   99999.00 
 211   13:20   100.00  99999.0   99999  99999.0   99999   99999.0   99999.0   99999.00 
 211   13:30   100.00  99999.0   99999  99999.0   99999   99999.0   99999.0   99999.00 
 211   13:40   100.00  99999.0   99999  99999.0   99999   99999.0   99999.0   99999.00 
 211   13:50   0.94   94.3    10    5.0    92    10.1   858.4    0.00 
 211   14:00   0.89   93.9     9    4.9    72    11.5   858.3    0.00 
 211   14:10   0.88   93.8     9    5.1    81    13.2   858.1    0.00 
 211   14:20   0.93   94.6     9    5.8    73    12.9   857.9    0.00 
 211   14:30   0.95   94.7     8    5.4   349    11.8   857.9    0.00 
 211   14:40   0.98   94.7     8    5.4   346    12.1   857.8    0.00 
 211   14:50   0.97   95.5     8    4.3    14    12.0   857.7    0.00 
 211   15:00   0.42   94.4     8    4.3   296    10.2   857.6    0.00 
 211   15:10   0.47   94.2     8    7.8    11    20.8   857.5    0.00 
 211   15:20   0.55   93.0     9    4.4    77     9.4   857.4    0.00 
 211   15:30   0.76   95.1     8    6.1    38    11.2   857.3    0.00 
 211   15:40   0.25   93.7     8    4.9    37     9.1   857.3    0.00 
 211   15:50   0.23   92.6     8    6.7   355    11.4   857.3    0.00 
 211   16:00   0.25   92.3     8    4.4   331     7.4   857.3    0.00 
 211   16:10   0.26   92.7     8    6.3   345     9.9   857.3    0.00 
 211   16:20   0.25   92.6     8    6.0   355     9.4   857.3    0.00 
 211   16:30   0.29   92.7     9    3.9    33     7.5   857.3    0.00 
 211   16:40   0.22   92.1     9    3.8    48     7.5   857.3    0.00 
 211   16:50   0.19   92.8     8    5.3     8    10.6   857.2    0.00 
 211   17:00   0.19   92.6     8    4.9   356    12.1   857.2    0.00 
 211   17:10   0.20   92.5     8    5.7     1     9.4   857.2    0.00 
 211   17:20   0.20   92.4     9    5.6   334     9.8   857.2    0.00 
 211   17:30   0.21   92.3     9    5.4   341     8.8   857.1    0.00 
 211   17:40   0.16   92.2     9    6.1   355     9.6   857.1    0.00 
 211   17:50   0.13   91.8     9    5.1   357     8.3   857.1    0.00 
 211   18:00   0.11   91.2    10    4.3   328     7.0   857.1    0.00 
 211   18:10   0.08   90.6    10    4.3   341     6.1   857.1    0.00 
 211   18:20   0.06   90.1    10    3.6   334     5.9   857.2    0.00 
 211   18:30   0.08   89.7    10    2.5   359     3.7   857.3    0.00 
 211   18:40   0.05   89.3    10    3.3   348     5.0   857.3    0.00 
 211   18:50   0.03   88.4    11    2.7   349     4.7   857.3    0.00 
 211   19:00   0.02   87.4    12    2.2   345     3.1   857.3    0.00 
 211   19:10   0.01   86.2    12    2.3     4     3.8   857.4    0.00 
 211   19:20   0.01   84.7    14    2.4   336     4.9   857.4    0.00 
 211   19:30   0.00   81.8    20    3.4   302     4.7   857.5    0.00 
 211   19:40   0.00   81.7    20    2.2   306     3.3   857.5    0.00 
 211   19:50   0.00   80.6    21    2.8   290     4.1   857.6    0.00 
 211   20:00   0.00   78.2    22    3.3   276     5.0   857.7    0.00 
 211   20:10   0.00   77.3    20    2.7   259     5.2   857.8    0.00 
 211   20:20   0.00   76.4    22    3.8   184     5.3   857.9    0.00 
 211   20:30   0.00   75.7    24    1.8   239     3.4   858.1    0.00 
 211   20:40   0.00   75.1    24    1.3   268     3.1   858.1    0.00 
 211   20:50   0.00   75.5    23    1.2   352     1.9   858.2    0.00 
 211   21:00   0.00   75.2    22    1.7   151     4.5   858.3    0.00 
 211   21:10   0.00   74.6    26    4.5   134     8.0   858.4    0.00 
 211   21:20   0.00   77.9    23    4.4   183     9.5   858.4    0.00 
 211   21:30   0.00   76.8    25    5.0   194     8.0   858.2    0.00 
 211   21:40   0.00   77.6    23    5.4   192     7.9   858.2    0.00 
 211   21:50   0.00   76.7    25    6.0   176     8.1   858.4    0.00 
 211   22:00   0.00   77.7    24    7.4   174    13.1   858.4    0.00 
 211   22:10   0.00   77.5    24    6.2   182     9.3   858.4    0.00 
 211   22:20   0.00   77.6    24    6.2   189    10.3   858.3    0.00 
 211   22:30   0.00   76.7    25    4.4   180     6.3   858.4    0.00 
 211   22:40   0.00   76.0    24    4.0   181     6.9   858.5    0.00 
 211   22:50   0.00   75.4    21    0.9   211     3.4   858.5    0.00 
 211   23:00   0.00   74.8    21    0.7   273     2.8   858.6    0.00 
 211   23:10   0.00   74.6    21    2.1    26     4.5   858.6    0.00 
 211   23:20   0.00   75.5    21    2.1   173     4.7   858.6    0.00 
 211   23:30   0.00   75.3    24    3.7   193     6.6   858.6    0.00 
 211   23:40   0.00   72.7    26    3.6   247     4.5   858.6    0.00 
 211   23:50   0.00   68.8    34    3.5   162     5.6   858.7    0.00 
 212    0:00   0.00   69.4    31    2.6   107     3.9   858.7    0.00 
 212    0:10   0.00   72.8    26    2.4    49     5.8   858.6    0.00 
 212    0:20   0.00   73.6    26    2.8    17     3.9   858.5    0.00 
 212    0:30   0.00   71.7    27    2.3    15     3.1   858.5    0.00 
 212    0:40   0.00   70.8    30    2.4    16     4.3   858.5    0.00 
 212    0:50   0.00   67.5    34    2.5   209     4.3   858.4    0.00 
 212    1:00   0.00   64.9    41    2.3   191     4.2   858.4    0.00 
 212    1:10   0.00   64.8    42    2.1   180     4.3   858.4    0.00 
 212    1:20   0.00   64.2    46    2.1   225     4.0   858.4    0.00 
 212    1:30   0.00   64.8    43    1.5   290     2.6   858.3    0.00 
 212    1:40   0.00   64.3    44    1.4   228     2.8   858.3    0.00 
 212    1:50   0.00   63.9    45    2.1   201     5.3   858.2    0.00 
 212    2:00   0.00   64.5    42    2.7   270     4.2   858.2    0.00 
 212    2:10   0.00   66.6    38    2.3   216     4.1   858.2    0.00 
 212    2:20   0.00   66.9    42    3.7   156     5.3   858.2    0.00 
 212    2:30   0.00   69.1    37    3.2   161     4.6   858.2    0.00 
 212    2:40   0.00   69.9    35    3.1   182     4.8   858.3    0.00 
 212    2:50   0.00   67.4    39    2.7   149     4.6   858.3    0.00 
 212    3:00   0.00   67.8    35    2.9   222     4.6   858.4    0.00 
 212    3:10   0.00   67.2    37    3.6   292     5.2   858.1    0.00 
 212    3:20   0.00   66.0    41    2.8   343     4.5   858.1    0.00 
 212    3:30   0.00   65.2    42    3.1   331     4.6   858.1    0.00 
 212    3:40   0.00   63.5    53    0.5   340     2.0   858.1    0.00 
 212    3:50   0.00   63.2    51    0.9   353     5.4   858.1    0.00 
 212    4:00   0.00   63.8    46    6.8   208    10.2   858.4    0.00 
 212    4:10   0.00   66.2    40    5.1   260     6.4   858.2    0.00 
 212    4:20   0.00   67.5    40    5.5   287     8.3   858.1    0.00 
 212    4:30   0.00   67.9    40    1.9   240     4.5   858.2    0.00 
 212    4:40   0.00   67.6    40    2.3   119     6.6   858.4    0.00 
 212    4:50   0.00   65.9    44    3.3    73     5.7   858.4    0.00 
 212    5:00   0.00   64.7    46    1.8   305     5.5   858.5    0.00 
 212    5:10   0.01   65.4    43    4.0   325     6.4   858.5    0.00 
 212    5:20   0.01   68.1    35    5.6    31     8.0   858.5    0.00 
 212    5:30   0.02   67.0    40    4.0   101    11.1   858.7    0.00 
 212    5:40   0.03   67.5    38    2.4   165     4.7   858.8    0.00 
 212    5:50   0.03   66.9    42    3.6   214     6.1   859.0    0.00 
 212    6:00   0.03   66.5    47    2.6   168     4.5   859.3    0.00 
 212    6:10   0.03   67.3    44    2.7   197     4.4   859.4    0.00 
 212    6:20   0.07   67.2    45    1.4   156     4.2   859.6    0.00 
 212    6:30   0.14   69.3    41    1.4   201     2.6   859.4    0.00 
 212    6:40   0.13   70.8    40    1.2   191     4.1   859.5    0.00 
 212    6:50   0.22   71.7    37    2.2   340     5.0   859.4    0.00 
 212    7:00   0.19   74.9    30    2.7    32     4.7   859.2    0.00 
 212    7:10   0.30   74.6    34    5.7    96    11.4   859.6    0.00 
 212    7:20   0.27   76.4    31    3.9   131     7.3   859.5    0.00 
 212    7:30   0.28   77.0    30    1.6   130     2.9   859.5    0.00 
 212    7:40   0.38   79.6    25    1.0    70     2.9   859.5    0.00 
 212    7:50   0.35   80.5    26    3.5   297     6.6   859.5    0.00 
 212    8:00   0.40   78.1    30    4.7   300     6.0   859.5    0.00 
 212    8:10   0.36   79.9    27    2.0   298     4.2   859.5    0.00 
 212    8:20   0.24   79.8    28    2.9   213     6.4   859.6    0.00 
 212    8:30   0.24   79.4    27    4.3   216     7.3   859.6    0.00 
 212    8:40   0.29   79.5    27    6.4   216     9.3   859.6    0.00 

Return to Smith Valley graphs page.


Western Regional Climate Center,wrcc@dri.edu